sensor_id;sensor_type;location;lat;lon;timestamp;pressure;altitude;pressure_sealevel;temperature;humidity
75794;BME280;64418;47.536;19.074;2023-11-21T00:00:48;99849.37;;;7.01;100.00
75794;BME280;64418;47.536;19.074;2023-11-21T00:03:16;99842.66;;;6.62;100.00
75794;BME280;64418;47.536;19.074;2023-11-21T00:05:46;99861.84;;;6.53;100.00
75794;BME280;64418;47.536;19.074;2023-11-21T00:08:22;99854.47;;;6.40;100.00
75794;BME280;64418;47.536;19.074;2023-11-21T00:10:48;99847.31;;;6.26;100.00
75794;BME280;64418;47.536;19.074;2023-11-21T00:13:14;99855.94;;;6.21;100.00
75794;BME280;64418;47.536;19.074;2023-11-21T00:15:42;99851.56;;;6.20;100.00
75794;BME280;64418;47.536;19.074;2023-11-21T00:18:10;99851.06;;;6.32;100.00
75794;BME280;64418;47.536;19.074;2023-11-21T00:20:36;99860.53;;;6.27;100.00
75794;BME280;64418;47.536;19.074;2023-11-21T00:23:03;99839.59;;;6.02;100.00
75794;BME280;64418;47.536;19.074;2023-11-21T00:25:30;99858.13;;;5.97;100.00
75794;BME280;64418;47.536;19.074;2023-11-21T00:27:59;99852.12;;;5.95;100.00
75794;BME280;64418;47.536;19.074;2023-11-21T00:30:26;99850.72;;;5.99;100.00
75794;BME280;64418;47.536;19.074;2023-11-21T00:32:53;99851.75;;;5.83;100.00
75794;BME280;64418;47.536;19.074;2023-11-21T00:35:18;99841.91;;;5.54;100.00
75794;BME280;64418;47.536;19.074;2023-11-21T00:37:45;99847.91;;;5.56;100.00
75794;BME280;64418;47.536;19.074;2023-11-21T00:40:16;99872.06;;;5.56;100.00
75794;BME280;64418;47.536;19.074;2023-11-21T00:42:42;99879.59;;;5.46;100.00
75794;BME280;64418;47.536;19.074;2023-11-21T00:45:09;99882.84;;;5.42;100.00
75794;BME280;64418;47.536;19.074;2023-11-21T00:47:38;99856.06;;;5.04;100.00
75794;BME280;64418;47.536;19.074;2023-11-21T00:50:04;99895.34;;;5.20;100.00
75794;BME280;64418;47.536;19.074;2023-11-21T00:52:30;99795.53;;;4.87;100.00
75794;BME280;64418;47.536;19.074;2023-11-21T00:54:57;99881.91;;;5.49;100.00
75794;BME280;64418;47.536;19.074;2023-11-21T00:57:33;99878.31;;;5.42;100.00
75794;BME280;64418;47.536;19.074;2023-11-21T01:00:01;99874.84;;;5.48;100.00
75794;BME280;64418;47.536;19.074;2023-11-21T01:02:29;99811.19;;;5.13;100.00
75794;BME280;64418;47.536;19.074;2023-11-21T01:04:55;99878.75;;;5.60;100.00
75794;BME280;64418;47.536;19.074;2023-11-21T01:07:21;99880.69;;;5.81;100.00
75794;BME280;64418;47.536;19.074;2023-11-21T01:09:47;99881.59;;;6.24;100.00
75794;BME280;64418;47.536;19.074;2023-11-21T01:12:14;99796.25;;;5.75;100.00
75794;BME280;64418;47.536;19.074;2023-11-21T01:14:42;99870.47;;;6.27;100.00
75794;BME280;64418;47.536;19.074;2023-11-21T01:17:08;99856.47;;;6.53;100.00
75794;BME280;64418;47.536;19.074;2023-11-21T01:19:34;99820.28;;;6.34;100.00
75794;BME280;64418;47.536;19.074;2023-11-21T01:22:00;99852.34;;;6.36;100.00
75794;BME280;64418;47.536;19.074;2023-11-21T01:24:28;99791.25;;;5.87;100.00
75794;BME280;64418;47.536;19.074;2023-11-21T01:26:54;99863.56;;;6.18;100.00
75794;BME280;64418;47.536;19.074;2023-11-21T01:29:20;99859.69;;;6.27;100.00
75794;BME280;64418;47.536;19.074;2023-11-21T01:31:47;99856.87;;;6.14;100.00
75794;BME280;64418;47.536;19.074;2023-11-21T01:34:13;99833.13;;;5.81;100.00
75794;BME280;64418;47.536;19.074;2023-11-21T01:36:39;99857.22;;;5.90;100.00
75794;BME280;64418;47.536;19.074;2023-11-21T01:39:05;99830.00;;;5.63;100.00
75794;BME280;64418;47.536;19.074;2023-11-21T01:41:32;99851.50;;;5.63;100.00
75794;BME280;64418;47.536;19.074;2023-11-21T01:44:01;99841.19;;;5.67;100.00
75794;BME280;64418;47.536;19.074;2023-11-21T01:46:27;99842.97;;;5.60;100.00
75794;BME280;64418;47.536;19.074;2023-11-21T01:49:21;99840.97;;;5.47;100.00
75794;BME280;64418;47.536;19.074;2023-11-21T01:51:54;99849.03;;;5.32;100.00
75794;BME280;64418;47.536;19.074;2023-11-21T01:54:26;99857.00;;;5.26;100.00
75794;BME280;64418;47.536;19.074;2023-11-21T01:56:53;99828.00;;;5.07;100.00
75794;BME280;64418;47.536;19.074;2023-11-21T01:59:21;99839.66;;;5.14;100.00
75794;BME280;64418;47.536;19.074;2023-11-21T02:01:47;99820.16;;;5.05;100.00
75794;BME280;64418;47.536;19.074;2023-11-21T02:04:15;99829.97;;;5.13;100.00
75794;BME280;64418;47.536;19.074;2023-11-21T02:06:42;99830.06;;;5.05;100.00
75794;BME280;64418;47.536;19.074;2023-11-21T02:09:10;99827.66;;;5.10;100.00
75794;BME280;64418;47.536;19.074;2023-11-21T02:11:36;99794.87;;;5.00;100.00
75794;BME280;64418;47.536;19.074;2023-11-21T02:14:02;99811.44;;;5.18;100.00
75794;BME280;64418;47.536;19.074;2023-11-21T02:16:28;99819.22;;;5.42;100.00
75794;BME280;64418;47.536;19.074;2023-11-21T02:18:54;99823.19;;;5.46;100.00
75794;BME280;64418;47.536;19.074;2023-11-21T02:21:23;99817.63;;;5.33;100.00
75794;BME280;64418;47.536;19.074;2023-11-21T02:23:53;99820.06;;;5.28;100.00
75794;BME280;64418;47.536;19.074;2023-11-21T02:26:19;99784.50;;;4.97;100.00
75794;BME280;64418;47.536;19.074;2023-11-21T02:28:46;99812.19;;;5.12;100.00
75794;BME280;64418;47.536;19.074;2023-11-21T02:31:12;99776.16;;;4.92;100.00
75794;BME280;64418;47.536;19.074;2023-11-21T02:33:38;99812.94;;;5.06;100.00
75794;BME280;64418;47.536;19.074;2023-11-21T02:36:04;99796.00;;;4.91;100.00
75794;BME280;64418;47.536;19.074;2023-11-21T02:38:30;99812.19;;;5.12;100.00
75794;BME280;64418;47.536;19.074;2023-11-21T02:41:03;99806.72;;;5.20;100.00
75794;BME280;64418;47.536;19.074;2023-11-21T02:43:29;99803.19;;;5.19;100.00
75794;BME280;64418;47.536;19.074;2023-11-21T02:45:56;99803.66;;;5.23;100.00
75794;BME280;64418;47.536;19.074;2023-11-21T02:48:22;99808.75;;;5.18;100.00
75794;BME280;64418;47.536;19.074;2023-11-21T02:50:48;99818.19;;;5.14;100.00
75794;BME280;64418;47.536;19.074;2023-11-21T02:53:14;99811.56;;;5.10;100.00
75794;BME280;64418;47.536;19.074;2023-11-21T02:55:41;99814.78;;;5.05;100.00
75794;BME280;64418;47.536;19.074;2023-11-21T02:58:09;99816.34;;;5.00;100.00
75794;BME280;64418;47.536;19.074;2023-11-21T03:00:37;99798.31;;;4.94;100.00
75794;BME280;64418;47.536;19.074;2023-11-21T03:03:03;99801.00;;;4.94;100.00
75794;BME280;64418;47.536;19.074;2023-11-21T03:05:29;99802.66;;;4.95;100.00
75794;BME280;64418;47.536;19.074;2023-11-21T03:07:55;99795.69;;;4.85;100.00
75794;BME280;64418;47.536;19.074;2023-11-21T03:10:21;99812.72;;;4.93;100.00
75794;BME280;64418;47.536;19.074;2023-11-21T03:12:47;99799.06;;;5.02;100.00
75794;BME280;64418;47.536;19.074;2023-11-21T03:15:22;99743.34;;;4.75;100.00
75794;BME280;64418;47.536;19.074;2023-11-21T03:17:48;99788.13;;;5.04;100.00
75794;BME280;64418;47.536;19.074;2023-11-21T03:20:14;99780.06;;;5.04;100.00
75794;BME280;64418;47.536;19.074;2023-11-21T03:22:41;99780.06;;;5.04;100.00
75794;BME280;64418;47.536;19.074;2023-11-21T03:25:07;99759.22;;;4.91;100.00
75794;BME280;64418;47.536;19.074;2023-11-21T03:27:33;99768.88;;;5.00;100.00
75794;BME280;64418;47.536;19.074;2023-11-21T03:29:59;99770.19;;;5.40;100.00
75794;BME280;64418;47.536;19.074;2023-11-21T03:32:27;99767.97;;;5.58;100.00
75794;BME280;64418;47.536;19.074;2023-11-21T03:34:54;99762.59;;;5.58;100.00
75794;BME280;64418;47.536;19.074;2023-11-21T03:37:22;99740.41;;;5.35;100.00
75794;BME280;64418;47.536;19.074;2023-11-21T03:39:48;99745.41;;;5.38;100.00
75794;BME280;64418;47.536;19.074;2023-11-21T03:42:14;99764.75;;;5.33;100.00
75794;BME280;64418;47.536;19.074;2023-11-21T03:44:41;99754.28;;;5.39;100.00
75794;BME280;64418;47.536;19.074;2023-11-21T03:47:08;99702.63;;;5.22;100.00
75794;BME280;64418;47.536;19.074;2023-11-21T03:49:39;99751.00;;;5.58;100.00
75794;BME280;64418;47.536;19.074;2023-11-21T03:52:06;99749.78;;;5.60;100.00
75794;BME280;64418;47.536;19.074;2023-11-21T03:54:32;99746.47;;;5.58;100.00
75794;BME280;64418;47.536;19.074;2023-11-21T03:56:58;99725.81;;;5.44;100.00
75794;BME280;64418;47.536;19.074;2023-11-21T03:59:24;99752.69;;;5.44;100.00
75794;BME280;64418;47.536;19.074;2023-11-21T04:01:50;99758.28;;;5.28;100.00
75794;BME280;64418;47.536;19.074;2023-11-21T04:04:19;99762.38;;;5.24;100.00
75794;BME280;64418;47.536;19.074;2023-11-21T04:06:47;99744.44;;;5.10;100.00
75794;BME280;64418;47.536;19.074;2023-11-21T04:09:13;99763.09;;;5.18;100.00
75794;BME280;64418;47.536;19.074;2023-11-21T04:11:39;99764.69;;;5.27;100.00
75794;BME280;64418;47.536;19.074;2023-11-21T04:14:09;99756.31;;;5.37;100.00
75794;BME280;64418;47.536;19.074;2023-11-21T04:16:34;99761.88;;;5.35;100.00
75794;BME280;64418;47.536;19.074;2023-11-21T04:19:01;99773.16;;;5.45;100.00
75794;BME280;64418;47.536;19.074;2023-11-21T04:21:27;99790.03;;;5.39;100.00
75794;BME280;64418;47.536;19.074;2023-11-21T04:23:58;99789.47;;;5.29;100.00
75794;BME280;64418;47.536;19.074;2023-11-21T04:26:24;99768.94;;;5.07;100.00
75794;BME280;64418;47.536;19.074;2023-11-21T04:28:51;99799.69;;;5.19;100.00
75794;BME280;64418;47.536;19.074;2023-11-21T04:31:17;99796.91;;;5.27;100.00
75794;BME280;64418;47.536;19.074;2023-11-21T04:33:43;99808.84;;;5.24;100.00
75794;BME280;64418;47.536;19.074;2023-11-21T04:36:09;99792.81;;;5.31;100.00
75794;BME280;64418;47.536;19.074;2023-11-21T04:38:36;99742.47;;;5.04;100.00
75794;BME280;64418;47.536;19.074;2023-11-21T04:41:06;99777.34;;;5.33;100.00
75794;BME280;64418;47.536;19.074;2023-11-21T04:43:34;99787.34;;;5.39;100.00
75794;BME280;64418;47.536;19.074;2023-11-21T04:46:00;99781.59;;;5.42;100.00
75794;BME280;64418;47.536;19.074;2023-11-21T04:51:21;99797.06;;;5.40;100.00
75794;BME280;64418;47.536;19.074;2023-11-21T04:53:51;99777.94;;;5.28;100.00
75794;BME280;64418;47.536;19.074;2023-11-21T04:56:20;99804.38;;;5.46;100.00
75794;BME280;64418;47.536;19.074;2023-11-21T04:58:46;99815.22;;;5.38;100.00
75794;BME280;64418;47.536;19.074;2023-11-21T05:01:11;99819.31;;;5.34;100.00
75794;BME280;64418;47.536;19.074;2023-11-21T05:03:37;99816.44;;;5.36;100.00
75794;BME280;64418;47.536;19.074;2023-11-21T05:06:03;99820.22;;;5.41;100.00
75794;BME280;64418;47.536;19.074;2023-11-21T05:08:30;99787.72;;;5.21;100.00
75794;BME280;64418;47.536;19.074;2023-11-21T05:10:55;99824.47;;;5.50;100.00
75794;BME280;64418;47.536;19.074;2023-11-21T05:13:23;99824.47;;;5.50;100.00
75794;BME280;64418;47.536;19.074;2023-11-21T05:15:50;99830.31;;;5.54;100.00
75794;BME280;64418;47.536;19.074;2023-11-21T05:18:16;99834.22;;;5.51;100.00
75794;BME280;64418;47.536;19.074;2023-11-21T05:20:42;99831.78;;;5.56;100.00
75794;BME280;64418;47.536;19.074;2023-11-21T05:23:09;99829.47;;;5.53;100.00
75794;BME280;64418;47.536;19.074;2023-11-21T05:25:35;99824.63;;;5.63;100.00
75794;BME280;64418;47.536;19.074;2023-11-21T05:28:01;99814.72;;;5.64;100.00
75794;BME280;64418;47.536;19.074;2023-11-21T05:30:29;99758.75;;;5.31;100.00
75794;BME280;64418;47.536;19.074;2023-11-21T05:32:55;99800.16;;;5.73;100.00
75794;BME280;64418;47.536;19.074;2023-11-21T05:35:21;99799.06;;;5.67;100.00
75794;BME280;64418;47.536;19.074;2023-11-21T05:37:47;99802.78;;;5.66;100.00
75794;BME280;64418;47.536;19.074;2023-11-21T05:40:16;99804.34;;;5.61;100.00
75794;BME280;64418;47.536;19.074;2023-11-21T05:42:42;99815.09;;;5.61;100.00
75794;BME280;64418;47.536;19.074;2023-11-21T05:45:09;99823.72;;;5.56;100.00
75794;BME280;64418;47.536;19.074;2023-11-21T05:47:41;99813.34;;;5.53;100.00
75794;BME280;64418;47.536;19.074;2023-11-21T05:50:08;99816.00;;;5.68;100.00
75794;BME280;64418;47.536;19.074;2023-11-21T05:52:35;99786.88;;;5.50;100.00
75794;BME280;64418;47.536;19.074;2023-11-21T05:55:01;99821.09;;;5.63;100.00
75794;BME280;64418;47.536;19.074;2023-11-21T05:57:28;99791.34;;;5.43;100.00
75794;BME280;64418;47.536;19.074;2023-11-21T05:59:55;99830.84;;;5.64;100.00
75794;BME280;64418;47.536;19.074;2023-11-21T06:02:22;99773.19;;;5.30;100.00
75794;BME280;64418;47.536;19.074;2023-11-21T06:04:50;99828.88;;;5.72;100.00
75794;BME280;64418;47.536;19.074;2023-11-21T06:07:18;99814.97;;;5.83;100.00
75794;BME280;64418;47.536;19.074;2023-11-21T06:09:50;99834.53;;;5.92;100.00
75794;BME280;64418;47.536;19.074;2023-11-21T06:12:17;99796.47;;;5.59;100.00
75794;BME280;64418;47.536;19.074;2023-11-21T06:14:43;99858.50;;;5.94;100.00
75794;BME280;64418;47.536;19.074;2023-11-21T06:17:09;99858.19;;;6.18;100.00
75794;BME280;64418;47.536;19.074;2023-11-21T06:19:35;99864.44;;;6.25;100.00
75794;BME280;64418;47.536;19.074;2023-11-21T06:22:08;99807.25;;;5.95;100.00
75794;BME280;64418;47.536;19.074;2023-11-21T06:24:34;99867.12;;;6.46;100.00
75794;BME280;64418;47.536;19.074;2023-11-21T06:27:00;99866.00;;;6.55;100.00
75794;BME280;64418;47.536;19.074;2023-11-21T06:29:29;99869.31;;;6.57;100.00
75794;BME280;64418;47.536;19.074;2023-11-21T06:31:55;99870.94;;;6.52;100.00
75794;BME280;64418;47.536;19.074;2023-11-21T06:34:22;99838.78;;;6.22;100.00
75794;BME280;64418;47.536;19.074;2023-11-21T06:36:48;99897.25;;;6.56;100.00
75794;BME280;64418;47.536;19.074;2023-11-21T06:39:22;99906.34;;;6.55;100.00
75794;BME280;64418;47.536;19.074;2023-11-21T06:41:48;99913.25;;;6.43;100.00
75794;BME280;64418;47.536;19.074;2023-11-21T06:44:15;99911.59;;;6.42;100.00
75794;BME280;64418;47.536;19.074;2023-11-21T06:46:43;99861.88;;;6.17;100.00
75794;BME280;64418;47.536;19.074;2023-11-21T06:49:09;99904.97;;;6.38;100.00
75794;BME280;64418;47.536;19.074;2023-11-21T06:51:35;99910.69;;;6.35;100.00
75794;BME280;64418;47.536;19.074;2023-11-21T06:54:02;99829.22;;;5.84;100.00
75794;BME280;64418;47.536;19.074;2023-11-21T06:56:31;99921.94;;;6.24;100.00
75794;BME280;64418;47.536;19.074;2023-11-21T06:58:58;99911.84;;;6.26;100.00
75794;BME280;64418;47.536;19.074;2023-11-21T07:01:31;99912.03;;;6.24;100.00
75794;BME280;64418;47.536;19.074;2023-11-21T07:03:59;99914.78;;;6.31;100.00
75794;BME280;64418;47.536;19.074;2023-11-21T07:09:03;99920.62;;;6.35;100.00
75794;BME280;64418;47.536;19.074;2023-11-21T07:11:49;99931.59;;;6.33;100.00
75794;BME280;64418;47.536;19.074;2023-11-21T07:14:20;99924.97;;;6.36;100.00
75794;BME280;64418;47.536;19.074;2023-11-21T07:16:47;99923.41;;;6.41;100.00
75794;BME280;64418;47.536;19.074;2023-11-21T07:19:15;99866.09;;;6.05;100.00
75794;BME280;64418;47.536;19.074;2023-11-21T07:21:42;99893.87;;;6.12;100.00
75794;BME280;64418;47.536;19.074;2023-11-21T07:24:10;99908.13;;;6.27;100.00
75794;BME280;64418;47.536;19.074;2023-11-21T07:26:36;99938.50;;;6.42;100.00
75794;BME280;64418;47.536;19.074;2023-11-21T07:29:04;99933.50;;;6.39;100.00
75794;BME280;64418;47.536;19.074;2023-11-21T07:31:31;99932.87;;;6.37;100.00
75794;BME280;64418;47.536;19.074;2023-11-21T07:33:57;99930.56;;;6.34;100.00
75794;BME280;64418;47.536;19.074;2023-11-21T07:36:24;99920.16;;;6.31;100.00
75794;BME280;64418;47.536;19.074;2023-11-21T07:38:51;99927.38;;;6.45;100.00
75794;BME280;64418;47.536;19.074;2023-11-21T07:41:18;99927.00;;;6.48;100.00
75794;BME280;64418;47.536;19.074;2023-11-21T07:43:45;99927.88;;;6.55;100.00
75794;BME280;64418;47.536;19.074;2023-11-21T07:46:16;99935.00;;;6.63;100.00
75794;BME280;64418;47.536;19.074;2023-11-21T07:48:43;99894.56;;;6.35;100.00
75794;BME280;64418;47.536;19.074;2023-11-21T07:51:11;99943.13;;;6.69;100.00
75794;BME280;64418;47.536;19.074;2023-11-21T07:53:38;99940.06;;;6.72;100.00
75794;BME280;64418;47.536;19.074;2023-11-21T07:56:06;99941.16;;;6.78;100.00
75794;BME280;64418;47.536;19.074;2023-11-21T07:58:33;99938.91;;;6.82;100.00
75794;BME280;64418;47.536;19.074;2023-11-21T08:01:03;99940.59;;;6.83;100.00
75794;BME280;64418;47.536;19.074;2023-11-21T08:03:32;99935.66;;;6.86;100.00
75794;BME280;64418;47.536;19.074;2023-11-21T08:05:59;99930.31;;;6.93;100.00
75794;BME280;64418;47.536;19.074;2023-11-21T08:08:27;99934.84;;;6.92;100.00
75794;BME280;64418;47.536;19.074;2023-11-21T08:10:53;99940.28;;;6.99;100.00
75794;BME280;64418;47.536;19.074;2023-11-21T08:13:20;99888.72;;;6.74;100.00
75794;BME280;64418;47.536;19.074;2023-11-21T08:15:46;99935.03;;;7.12;100.00
75794;BME280;64418;47.536;19.074;2023-11-21T08:18:12;99872.41;;;6.75;100.00
75794;BME280;64418;47.536;19.074;2023-11-21T08:20:42;99941.00;;;7.35;100.00
75794;BME280;64418;47.536;19.074;2023-11-21T08:23:13;99937.47;;;7.35;100.00
75794;BME280;64418;47.536;19.074;2023-11-21T08:25:44;99931.94;;;7.43;100.00
75794;BME280;64418;47.536;19.074;2023-11-21T08:28:10;99925.72;;;7.42;100.00
75794;BME280;64418;47.536;19.074;2023-11-21T08:30:37;99930.84;;;7.65;100.00
75794;BME280;64418;47.536;19.074;2023-11-21T08:33:04;99921.44;;;7.89;100.00
75794;BME280;64418;47.536;19.074;2023-11-21T08:35:31;99926.75;;;7.75;100.00
75794;BME280;64418;47.536;19.074;2023-11-21T08:38:00;99919.25;;;7.71;100.00
75794;BME280;64418;47.536;19.074;2023-11-21T08:40:29;99915.13;;;7.75;100.00
75794;BME280;64418;47.536;19.074;2023-11-21T08:42:57;99914.72;;;7.78;100.00
75794;BME280;64418;47.536;19.074;2023-11-21T08:45:25;99909.13;;;7.80;100.00
75794;BME280;64418;47.536;19.074;2023-11-21T08:47:52;99912.28;;;7.83;100.00
75794;BME280;64418;47.536;19.074;2023-11-21T08:50:19;99915.41;;;7.87;100.00
75794;BME280;64418;47.536;19.074;2023-11-21T08:52:47;99858.47;;;7.62;100.00
75794;BME280;64418;47.536;19.074;2023-11-21T08:55:15;99908.41;;;7.99;100.00
75794;BME280;64418;47.536;19.074;2023-11-21T08:57:44;99880.47;;;8.26;100.00
75794;BME280;64418;47.536;19.074;2023-11-21T09:00:11;99908.75;;;8.30;100.00
75794;BME280;64418;47.536;19.074;2023-11-21T09:02:45;99912.06;;;8.32;100.00
75794;BME280;64418;47.536;19.074;2023-11-21T09:05:14;99918.69;;;8.23;100.00
75794;BME280;64418;47.536;19.074;2023-11-21T09:07:42;99876.63;;;7.88;100.00
75794;BME280;64418;47.536;19.074;2023-11-21T09:10:14;99925.28;;;8.14;100.00
75794;BME280;64418;47.536;19.074;2023-11-21T09:12:47;99925.69;;;8.17;100.00
75794;BME280;64418;47.536;19.074;2023-11-21T09:15:15;99933.19;;;8.22;100.00
75794;BME280;64418;47.536;19.074;2023-11-21T09:17:41;99918.69;;;8.23;100.00
75794;BME280;64418;47.536;19.074;2023-11-21T09:20:11;99908.47;;;8.18;100.00
75794;BME280;64418;47.536;19.074;2023-11-21T09:22:38;99910.34;;;8.18;99.63
75794;BME280;64418;47.536;19.074;2023-11-21T09:25:09;99906.22;;;8.22;99.57
75794;BME280;64418;47.536;19.074;2023-11-21T09:27:39;99909.53;;;8.24;99.65
75794;BME280;64418;47.536;19.074;2023-11-21T09:30:08;99905.78;;;8.25;98.98
75794;BME280;64418;47.536;19.074;2023-11-21T09:32:36;99880.91;;;8.23;99.45
75794;BME280;64418;47.536;19.074;2023-11-21T09:35:03;99900.47;;;8.38;98.67
75794;BME280;64418;47.536;19.074;2023-11-21T09:37:31;99895.28;;;8.43;98.31
75794;BME280;64418;47.536;19.074;2023-11-21T09:39:57;99898.00;;;8.50;98.37
75794;BME280;64418;47.536;19.074;2023-11-21T09:42:29;99886.37;;;8.56;98.68
75794;BME280;64418;47.536;19.074;2023-11-21T09:45:03;99882.25;;;8.60;97.83
75794;BME280;64418;47.536;19.074;2023-11-21T09:47:37;99874.38;;;8.72;96.97
75794;BME280;64418;47.536;19.074;2023-11-21T09:50:06;99875.62;;;8.76;97.16
75794;BME280;64418;47.536;19.074;2023-11-21T09:52:32;99870.63;;;8.79;97.11
75794;BME280;64418;47.536;19.074;2023-11-21T09:55:03;99865.41;;;8.78;96.17
75794;BME280;64418;47.536;19.074;2023-11-21T09:57:30;99868.75;;;8.80;96.19
75794;BME280;64418;47.536;19.074;2023-11-21T09:59:57;99871.47;;;8.80;95.84
75794;BME280;64418;47.536;19.074;2023-11-21T10:02:27;99862.09;;;8.69;95.17
75794;BME280;64418;47.536;19.074;2023-11-21T10:04:56;99871.25;;;8.75;95.42
75794;BME280;64418;47.536;19.074;2023-11-21T10:07:22;99870.63;;;8.79;95.65
75794;BME280;64418;47.536;19.074;2023-11-21T10:09:51;99854.00;;;8.76;94.99
75794;BME280;64418;47.536;19.074;2023-11-21T10:12:18;99874.34;;;8.85;94.00
75794;BME280;64418;47.536;19.074;2023-11-21T10:14:46;99867.09;;;8.85;94.42
75794;BME280;64418;47.536;19.074;2023-11-21T10:17:14;99862.94;;;8.83;95.16
75794;BME280;64418;47.536;19.074;2023-11-21T10:19:41;99870.63;;;8.86;96.00
75794;BME280;64418;47.536;19.074;2023-11-21T10:22:12;99867.31;;;8.84;95.98
75794;BME280;64418;47.536;19.074;2023-11-21T10:24:39;99860.66;;;8.86;96.27
75794;BME280;64418;47.536;19.074;2023-11-21T10:27:06;99852.31;;;8.88;95.40
75794;BME280;64418;47.536;19.074;2023-11-21T10:29:33;99829.06;;;8.80;95.22
75794;BME280;64418;47.536;19.074;2023-11-21T10:32:00;99853.78;;;8.97;95.23
75794;BME280;64418;47.536;19.074;2023-11-21T10:34:27;99855.63;;;9.03;94.57
75794;BME280;64418;47.536;19.074;2023-11-21T10:36:54;99848.59;;;9.02;93.76
75794;BME280;64418;47.536;19.074;2023-11-21T10:39:22;99855.84;;;9.08;93.34
75794;BME280;64418;47.536;19.074;2023-11-21T10:41:49;99857.72;;;9.14;93.55
75794;BME280;64418;47.536;19.074;2023-11-21T10:44:17;99790.84;;;8.90;92.00
75794;BME280;64418;47.536;19.074;2023-11-21T10:46:43;99846.06;;;9.27;92.27
75794;BME280;64418;47.536;19.074;2023-11-21T10:49:10;99848.13;;;9.31;91.44
75794;BME280;64418;47.536;19.074;2023-11-21T10:51:37;99859.75;;;9.38;91.39
75794;BME280;64418;47.536;19.074;2023-11-21T10:54:09;99850.19;;;9.42;90.29
75794;BME280;64418;47.536;19.074;2023-11-21T10:56:37;99840.59;;;9.46;89.68
75794;BME280;64418;47.536;19.074;2023-11-21T10:59:05;99853.91;;;9.54;88.88
75794;BME280;64418;47.536;19.074;2023-11-21T11:01:32;99850.56;;;9.52;88.44
75794;BME280;64418;47.536;19.074;2023-11-21T11:03:59;99841.84;;;9.50;88.32
75794;BME280;64418;47.536;19.074;2023-11-21T11:06:27;99847.84;;;9.52;88.55
75794;BME280;64418;47.536;19.074;2023-11-21T11:08:54;99847.84;;;9.59;87.82
75794;BME280;64418;47.536;19.074;2023-11-21T11:11:20;99845.28;;;9.71;87.84
75794;BME280;64418;47.536;19.074;2023-11-21T11:13:48;99842.16;;;9.80;88.41
75794;BME280;64418;47.536;19.074;2023-11-21T11:16:17;99835.31;;;9.78;87.28
75794;BME280;64418;47.536;19.074;2023-11-21T11:18:44;99834.66;;;9.76;86.20
75794;BME280;64418;47.536;19.074;2023-11-21T11:21:20;99832.16;;;9.81;85.83
75794;BME280;64418;47.536;19.074;2023-11-21T11:24:05;99834.63;;;9.82;86.51
75794;BME280;64418;47.536;19.074;2023-11-21T11:26:44;99819.31;;;9.70;87.52
75794;BME280;64418;47.536;19.074;2023-11-21T11:29:23;99794.28;;;9.36;88.42
75794;BME280;64418;47.536;19.074;2023-11-21T11:32:00;99836.81;;;9.60;89.39
75794;BME280;64418;47.536;19.074;2023-11-21T11:34:31;99833.66;;;9.63;89.51
75794;BME280;64418;47.536;19.074;2023-11-21T11:37:01;99832.03;;;9.62;89.64
75794;BME280;64418;47.536;19.074;2023-11-21T11:39:29;99824.31;;;9.59;89.10
75794;BME280;64418;47.536;19.074;2023-11-21T11:42:01;99828.06;;;9.65;89.05
75794;BME280;64418;47.536;19.074;2023-11-21T11:44:55;99823.47;;;9.65;89.22
75794;BME280;64418;47.536;19.074;2023-11-21T11:47:25;99821.19;;;9.69;88.55
75794;BME280;64418;47.536;19.074;2023-11-21T11:49:57;99822.22;;;9.68;88.37
75794;BME280;64418;47.536;19.074;2023-11-21T11:52:35;99817.22;;;9.72;88.50
75794;BME280;64418;47.536;19.074;2023-11-21T11:55:03;99817.59;;;9.75;88.74
75794;BME280;64418;47.536;19.074;2023-11-21T11:57:42;99813.47;;;9.73;88.89
75794;BME280;64418;47.536;19.074;2023-11-21T12:00:22;99806.78;;;9.75;89.10
75794;BME280;64418;47.536;19.074;2023-11-21T12:02:52;99808.50;;;9.70;89.28
75794;BME280;64418;47.536;19.074;2023-11-21T12:05:20;99808.50;;;9.70;89.65
75794;BME280;64418;47.536;19.074;2023-11-21T12:07:48;99806.22;;;9.66;89.68
75794;BME280;64418;47.536;19.074;2023-11-21T12:10:17;99810.56;;;9.74;89.45
75794;BME280;64418;47.536;19.074;2023-11-21T12:12:44;99805.31;;;9.79;89.59
75794;BME280;64418;47.536;19.074;2023-11-21T12:15:15;99816.38;;;9.78;89.29
75794;BME280;64418;47.536;19.074;2023-11-21T12:17:44;99799.69;;;9.81;89.91
75794;BME280;64418;47.536;19.074;2023-11-21T12:20:11;99782.47;;;9.68;89.63
75794;BME280;64418;47.536;19.074;2023-11-21T12:22:43;99803.84;;;9.83;89.42
75794;BME280;64418;47.536;19.074;2023-11-21T12:25:09;99805.09;;;9.81;89.94
75794;BME280;64418;47.536;19.074;2023-11-21T12:27:39;99805.50;;;9.84;90.28
75794;BME280;64418;47.536;19.074;2023-11-21T12:30:07;99807.38;;;9.84;90.23
75794;BME280;64418;47.536;19.074;2023-11-21T12:32:36;99789.31;;;9.78;90.05
75794;BME280;64418;47.536;19.074;2023-11-21T12:35:02;99794.25;;;9.87;90.29
75794;BME280;64418;47.536;19.074;2023-11-21T12:37:29;99737.59;;;9.61;89.90
75794;BME280;64418;47.536;19.074;2023-11-21T12:39:57;99787.97;;;9.93;89.96
75794;BME280;64418;47.536;19.074;2023-11-21T12:42:23;99778.38;;;9.97;89.88
75794;BME280;64418;47.536;19.074;2023-11-21T12:45:09;99772.75;;;9.99;89.57
75794;BME280;64418;47.536;19.074;2023-11-21T12:47:45;99780.44;;;10.02;89.54
75794;BME280;64418;47.536;19.074;2023-11-21T12:50:15;99789.59;;;10.01;89.68
75794;BME280;64418;47.536;19.074;2023-11-21T12:52:45;99744.38;;;9.77;89.73
75794;BME280;64418;47.536;19.074;2023-11-21T12:55:15;99796.28;;;9.98;89.63
75794;BME280;64418;47.536;19.074;2023-11-21T12:57:48;99789.59;;;10.01;89.78
75794;BME280;64418;47.536;19.074;2023-11-21T13:00:18;99787.13;;;9.99;89.62
75794;BME280;64418;47.536;19.074;2023-11-21T13:02:48;99730.91;;;9.63;89.86